sensor_id;sensor_type;location;lat;lon;timestamp;P1;durP1;ratioP1;P2;durP2;ratioP2
50205;SDS011;36098;48.390;10.856;2023-08-08T00:00:12;1.35;;;0.70;;
50205;SDS011;36098;48.390;10.856;2023-08-08T00:02:38;2.17;;;0.80;;
50205;SDS011;36098;48.390;10.856;2023-08-08T00:05:04;1.45;;;0.70;;
50205;SDS011;36098;48.390;10.856;2023-08-08T00:07:29;1.27;;;0.73;;
50205;SDS011;36098;48.390;10.856;2023-08-08T00:09:55;0.90;;;0.68;;
50205;SDS011;36098;48.390;10.856;2023-08-08T00:12:21;0.95;;;0.60;;
50205;SDS011;36098;48.390;10.856;2023-08-08T00:14:46;2.08;;;0.80;;
50205;SDS011;36098;48.390;10.856;2023-08-08T00:17:11;1.05;;;0.60;;
50205;SDS011;36098;48.390;10.856;2023-08-08T00:19:37;1.75;;;0.65;;
50205;SDS011;36098;48.390;10.856;2023-08-08T00:22:02;1.20;;;0.70;;
50205;SDS011;36098;48.390;10.856;2023-08-08T00:24:28;2.17;;;0.85;;
50205;SDS011;36098;48.390;10.856;2023-08-08T00:26:53;0.93;;;0.60;;
50205;SDS011;36098;48.390;10.856;2023-08-08T00:29:18;1.88;;;0.80;;
50205;SDS011;36098;48.390;10.856;2023-08-08T00:31:44;3.70;;;0.80;;
50205;SDS011;36098;48.390;10.856;2023-08-08T00:34:09;2.30;;;0.95;;
50205;SDS011;36098;48.390;10.856;2023-08-08T00:36:34;1.63;;;0.73;;
50205;SDS011;36098;48.390;10.856;2023-08-08T00:39:00;1.83;;;0.77;;
50205;SDS011;36098;48.390;10.856;2023-08-08T00:41:25;1.02;;;0.70;;
50205;SDS011;36098;48.390;10.856;2023-08-08T00:43:50;1.73;;;0.82;;
50205;SDS011;36098;48.390;10.856;2023-08-08T00:46:17;0.80;;;0.60;;
50205;SDS011;36098;48.390;10.856;2023-08-08T00:48:46;0.90;;;0.50;;
50205;SDS011;36098;48.390;10.856;2023-08-08T00:51:12;1.00;;;0.60;;
50205;SDS011;36098;48.390;10.856;2023-08-08T00:53:38;1.60;;;0.85;;
50205;SDS011;36098;48.390;10.856;2023-08-08T00:56:04;1.02;;;0.70;;
50205;SDS011;36098;48.390;10.856;2023-08-08T00:58:30;1.17;;;0.70;;
50205;SDS011;36098;48.390;10.856;2023-08-08T01:00:55;1.65;;;0.77;;
50205;SDS011;36098;48.390;10.856;2023-08-08T01:03:24;1.33;;;0.73;;
50205;SDS011;36098;48.390;10.856;2023-08-08T01:05:55;1.63;;;0.85;;
50205;SDS011;36098;48.390;10.856;2023-08-08T01:08:35;0.98;;;0.52;;
50205;SDS011;36098;48.390;10.856;2023-08-08T01:11:05;1.58;;;0.70;;
50205;SDS011;36098;48.390;10.856;2023-08-08T01:13:31;2.35;;;0.70;;
50205;SDS011;36098;48.390;10.856;2023-08-08T01:15:58;2.00;;;0.60;;
50205;SDS011;36098;48.390;10.856;2023-08-08T01:18:24;1.60;;;0.60;;
50205;SDS011;36098;48.390;10.856;2023-08-08T01:20:51;1.08;;;0.70;;
50205;SDS011;36098;48.390;10.856;2023-08-08T01:23:33;0.90;;;0.70;;
50205;SDS011;36098;48.390;10.856;2023-08-08T01:26:06;1.13;;;0.52;;
50205;SDS011;36098;48.390;10.856;2023-08-08T01:28:33;1.20;;;0.70;;
50205;SDS011;36098;48.390;10.856;2023-08-08T01:30:59;0.70;;;0.47;;
50205;SDS011;36098;48.390;10.856;2023-08-08T01:33:24;1.10;;;0.60;;
50205;SDS011;36098;48.390;10.856;2023-08-08T01:35:53;1.08;;;0.60;;
50205;SDS011;36098;48.390;10.856;2023-08-08T01:38:23;1.88;;;0.60;;
50205;SDS011;36098;48.390;10.856;2023-08-08T01:40:54;0.90;;;0.63;;
50205;SDS011;36098;48.390;10.856;2023-08-08T01:43:21;0.52;;;0.40;;
50205;SDS011;36098;48.390;10.856;2023-08-08T01:45:48;0.60;;;0.60;;
50205;SDS011;36098;48.390;10.856;2023-08-08T01:48:13;0.63;;;0.50;;
50205;SDS011;36098;48.390;10.856;2023-08-08T01:50:39;0.90;;;0.57;;
50205;SDS011;36098;48.390;10.856;2023-08-08T01:53:04;1.02;;;0.50;;
50205;SDS011;36098;48.390;10.856;2023-08-08T01:55:30;1.05;;;0.63;;
50205;SDS011;36098;48.390;10.856;2023-08-08T01:57:55;0.82;;;0.55;;
50205;SDS011;36098;48.390;10.856;2023-08-08T02:00:21;1.63;;;0.60;;
50205;SDS011;36098;48.390;10.856;2023-08-08T02:02:47;1.13;;;0.55;;
50205;SDS011;36098;48.390;10.856;2023-08-08T02:05:12;0.95;;;0.73;;
50205;SDS011;36098;48.390;10.856;2023-08-08T02:07:37;0.88;;;0.70;;
50205;SDS011;36098;48.390;10.856;2023-08-08T02:10:03;1.02;;;0.63;;
50205;SDS011;36098;48.390;10.856;2023-08-08T02:12:28;0.73;;;0.60;;
50205;SDS011;36098;48.390;10.856;2023-08-08T02:14:55;0.68;;;0.57;;
50205;SDS011;36098;48.390;10.856;2023-08-08T02:17:21;1.13;;;0.55;;
50205;SDS011;36098;48.390;10.856;2023-08-08T02:19:46;0.82;;;0.50;;
50205;SDS011;36098;48.390;10.856;2023-08-08T02:22:12;0.75;;;0.50;;
50205;SDS011;36098;48.390;10.856;2023-08-08T02:24:37;0.82;;;0.60;;
50205;SDS011;36098;48.390;10.856;2023-08-08T02:27:02;1.02;;;0.50;;
50205;SDS011;36098;48.390;10.856;2023-08-08T02:29:28;1.15;;;0.60;;
50205;SDS011;36098;48.390;10.856;2023-08-08T02:31:53;0.80;;;0.50;;
50205;SDS011;36098;48.390;10.856;2023-08-08T02:34:18;1.25;;;0.70;;
50205;SDS011;36098;48.390;10.856;2023-08-08T02:36:43;0.75;;;0.55;;
50205;SDS011;36098;48.390;10.856;2023-08-08T02:39:09;1.17;;;0.52;;
50205;SDS011;36098;48.390;10.856;2023-08-08T02:41:34;1.08;;;0.70;;
50205;SDS011;36098;48.390;10.856;2023-08-08T02:43:59;0.88;;;0.68;;
50205;SDS011;36098;48.390;10.856;2023-08-08T02:46:25;0.77;;;0.50;;
50205;SDS011;36098;48.390;10.856;2023-08-08T02:48:50;1.95;;;0.57;;
50205;SDS011;36098;48.390;10.856;2023-08-08T02:51:15;0.80;;;0.60;;
50205;SDS011;36098;48.390;10.856;2023-08-08T02:53:41;0.82;;;0.50;;
50205;SDS011;36098;48.390;10.856;2023-08-08T02:56:06;1.10;;;0.60;;
50205;SDS011;36098;48.390;10.856;2023-08-08T02:58:31;0.75;;;0.60;;
50205;SDS011;36098;48.390;10.856;2023-08-08T03:00:56;0.98;;;0.55;;
50205;SDS011;36098;48.390;10.856;2023-08-08T03:03:22;1.58;;;0.50;;
50205;SDS011;36098;48.390;10.856;2023-08-08T03:05:47;0.75;;;0.45;;
50205;SDS011;36098;48.390;10.856;2023-08-08T03:08:12;0.93;;;0.43;;
50205;SDS011;36098;48.390;10.856;2023-08-08T03:10:37;1.30;;;0.70;;
50205;SDS011;36098;48.390;10.856;2023-08-08T03:13:03;0.75;;;0.55;;
50205;SDS011;36098;48.390;10.856;2023-08-08T03:15:28;1.17;;;0.52;;
50205;SDS011;36098;48.390;10.856;2023-08-08T03:17:54;0.70;;;0.50;;
50205;SDS011;36098;48.390;10.856;2023-08-08T03:20:20;0.63;;;0.50;;
50205;SDS011;36098;48.390;10.856;2023-08-08T03:22:45;1.95;;;0.60;;
50205;SDS011;36098;48.390;10.856;2023-08-08T03:25:11;1.10;;;0.60;;
50205;SDS011;36098;48.390;10.856;2023-08-08T03:27:36;0.93;;;0.57;;
50205;SDS011;36098;48.390;10.856;2023-08-08T03:30:02;0.85;;;0.50;;
50205;SDS011;36098;48.390;10.856;2023-08-08T03:32:27;0.88;;;0.50;;
50205;SDS011;36098;48.390;10.856;2023-08-08T03:34:53;0.70;;;0.50;;
50205;SDS011;36098;48.390;10.856;2023-08-08T03:37:18;0.63;;;0.50;;
50205;SDS011;36098;48.390;10.856;2023-08-08T03:39:43;0.82;;;0.50;;
50205;SDS011;36098;48.390;10.856;2023-08-08T03:42:09;2.22;;;0.45;;
50205;SDS011;36098;48.390;10.856;2023-08-08T03:44:34;0.80;;;0.52;;
50205;SDS011;36098;48.390;10.856;2023-08-08T03:46:59;1.02;;;0.57;;
50205;SDS011;36098;48.390;10.856;2023-08-08T03:49:25;0.70;;;0.40;;
50205;SDS011;36098;48.390;10.856;2023-08-08T03:51:50;0.70;;;0.50;;
50205;SDS011;36098;48.390;10.856;2023-08-08T03:54:16;1.25;;;0.77;;
50205;SDS011;36098;48.390;10.856;2023-08-08T03:56:43;1.10;;;0.73;;
50205;SDS011;36098;48.390;10.856;2023-08-08T03:59:08;0.95;;;0.60;;
50205;SDS011;36098;48.390;10.856;2023-08-08T04:01:33;0.63;;;0.55;;
50205;SDS011;36098;48.390;10.856;2023-08-08T04:03:58;0.98;;;0.55;;
50205;SDS011;36098;48.390;10.856;2023-08-08T04:06:24;0.60;;;0.55;;
50205;SDS011;36098;48.390;10.856;2023-08-08T04:08:49;1.00;;;0.40;;
50205;SDS011;36098;48.390;10.856;2023-08-08T04:11:14;0.88;;;0.60;;
50205;SDS011;36098;48.390;10.856;2023-08-08T04:13:40;0.80;;;0.57;;
50205;SDS011;36098;48.390;10.856;2023-08-08T04:16:05;0.85;;;0.52;;
50205;SDS011;36098;48.390;10.856;2023-08-08T04:18:30;0.60;;;0.47;;
50205;SDS011;36098;48.390;10.856;2023-08-08T04:20:56;0.45;;;0.40;;
50205;SDS011;36098;48.390;10.856;2023-08-08T04:23:21;0.55;;;0.43;;
50205;SDS011;36098;48.390;10.856;2023-08-08T04:25:50;0.63;;;0.40;;
50205;SDS011;36098;48.390;10.856;2023-08-08T04:28:15;0.70;;;0.40;;
50205;SDS011;36098;48.390;10.856;2023-08-08T04:30:41;0.90;;;0.60;;
50205;SDS011;36098;48.390;10.856;2023-08-08T04:33:06;0.80;;;0.60;;
50205;SDS011;36098;48.390;10.856;2023-08-08T04:35:31;0.68;;;0.43;;
50205;SDS011;36098;48.390;10.856;2023-08-08T04:37:56;1.17;;;0.60;;
50205;SDS011;36098;48.390;10.856;2023-08-08T04:40:22;0.88;;;0.65;;
50205;SDS011;36098;48.390;10.856;2023-08-08T04:42:47;0.85;;;0.50;;
50205;SDS011;36098;48.390;10.856;2023-08-08T04:45:12;1.00;;;0.60;;
50205;SDS011;36098;48.390;10.856;2023-08-08T04:47:38;0.98;;;0.60;;
50205;SDS011;36098;48.390;10.856;2023-08-08T04:50:03;1.27;;;0.60;;
50205;SDS011;36098;48.390;10.856;2023-08-08T04:52:29;0.82;;;0.47;;
50205;SDS011;36098;48.390;10.856;2023-08-08T04:54:54;1.27;;;0.60;;
50205;SDS011;36098;48.390;10.856;2023-08-08T04:57:19;0.80;;;0.60;;
50205;SDS011;36098;48.390;10.856;2023-08-08T04:59:44;0.60;;;0.50;;
50205;SDS011;36098;48.390;10.856;2023-08-08T05:02:10;1.17;;;0.70;;
50205;SDS011;36098;48.390;10.856;2023-08-08T05:04:35;0.60;;;0.45;;
50205;SDS011;36098;48.390;10.856;2023-08-08T05:07:00;0.90;;;0.60;;
50205;SDS011;36098;48.390;10.856;2023-08-08T05:09:26;1.23;;;0.60;;
50205;SDS011;36098;48.390;10.856;2023-08-08T05:11:51;0.90;;;0.60;;
50205;SDS011;36098;48.390;10.856;2023-08-08T05:14:17;0.90;;;0.50;;
50205;SDS011;36098;48.390;10.856;2023-08-08T05:16:43;0.65;;;0.47;;
50205;SDS011;36098;48.390;10.856;2023-08-08T05:19:08;1.58;;;0.47;;
50205;SDS011;36098;48.390;10.856;2023-08-08T05:21:34;0.60;;;0.50;;
50205;SDS011;36098;48.390;10.856;2023-08-08T05:23:59;1.15;;;0.65;;
50205;SDS011;36098;48.390;10.856;2023-08-08T05:26:24;0.60;;;0.50;;
50205;SDS011;36098;48.390;10.856;2023-08-08T05:28:50;0.73;;;0.50;;
50205;SDS011;36098;48.390;10.856;2023-08-08T05:31:15;1.00;;;0.63;;
50205;SDS011;36098;48.390;10.856;2023-08-08T05:33:40;0.50;;;0.50;;
50205;SDS011;36098;48.390;10.856;2023-08-08T05:36:06;0.50;;;0.45;;
50205;SDS011;36098;48.390;10.856;2023-08-08T05:38:31;0.60;;;0.43;;
50205;SDS011;36098;48.390;10.856;2023-08-08T05:40:56;0.77;;;0.50;;
50205;SDS011;36098;48.390;10.856;2023-08-08T05:43:22;1.15;;;0.40;;
50205;SDS011;36098;48.390;10.856;2023-08-08T05:45:47;1.15;;;0.57;;
50205;SDS011;36098;48.390;10.856;2023-08-08T05:48:12;0.85;;;0.50;;
50205;SDS011;36098;48.390;10.856;2023-08-08T05:50:41;0.70;;;0.50;;
50205;SDS011;36098;48.390;10.856;2023-08-08T05:53:06;1.05;;;0.50;;
50205;SDS011;36098;48.390;10.856;2023-08-08T05:55:31;0.98;;;0.50;;
50205;SDS011;36098;48.390;10.856;2023-08-08T05:57:57;1.00;;;0.50;;
50205;SDS011;36098;48.390;10.856;2023-08-08T06:00:22;0.40;;;0.40;;
50205;SDS011;36098;48.390;10.856;2023-08-08T06:02:48;0.70;;;0.43;;
50205;SDS011;36098;48.390;10.856;2023-08-08T06:05:13;0.73;;;0.50;;
50205;SDS011;36098;48.390;10.856;2023-08-08T06:07:39;1.08;;;0.60;;
50205;SDS011;36098;48.390;10.856;2023-08-08T06:10:04;0.50;;;0.43;;
50205;SDS011;36098;48.390;10.856;2023-08-08T06:12:30;0.73;;;0.50;;
50205;SDS011;36098;48.390;10.856;2023-08-08T06:14:56;0.90;;;0.45;;
50205;SDS011;36098;48.390;10.856;2023-08-08T06:17:21;0.60;;;0.40;;
50205;SDS011;36098;48.390;10.856;2023-08-08T06:19:48;0.63;;;0.50;;
50205;SDS011;36098;48.390;10.856;2023-08-08T06:22:14;0.85;;;0.60;;
50205;SDS011;36098;48.390;10.856;2023-08-08T06:24:40;0.70;;;0.40;;
50205;SDS011;36098;48.390;10.856;2023-08-08T06:27:05;0.82;;;0.50;;
50205;SDS011;36098;48.390;10.856;2023-08-08T06:29:30;0.77;;;0.60;;
50205;SDS011;36098;48.390;10.856;2023-08-08T06:31:56;0.50;;;0.43;;
50205;SDS011;36098;48.390;10.856;2023-08-08T06:34:21;0.73;;;0.47;;
50205;SDS011;36098;48.390;10.856;2023-08-08T06:36:46;0.63;;;0.50;;
50205;SDS011;36098;48.390;10.856;2023-08-08T06:39:12;0.73;;;0.50;;
50205;SDS011;36098;48.390;10.856;2023-08-08T06:41:37;0.60;;;0.52;;
50205;SDS011;36098;48.390;10.856;2023-08-08T06:44:03;0.93;;;0.52;;
50205;SDS011;36098;48.390;10.856;2023-08-08T06:46:29;1.13;;;0.68;;
50205;SDS011;36098;48.390;10.856;2023-08-08T06:48:54;0.70;;;0.55;;
50205;SDS011;36098;48.390;10.856;2023-08-08T06:51:24;0.90;;;0.60;;
50205;SDS011;36098;48.390;10.856;2023-08-08T06:53:50;1.27;;;0.60;;
50205;SDS011;36098;48.390;10.856;2023-08-08T06:56:15;2.75;;;0.65;;
50205;SDS011;36098;48.390;10.856;2023-08-08T06:58:40;0.90;;;0.60;;
50205;SDS011;36098;48.390;10.856;2023-08-08T07:01:05;0.82;;;0.57;;
50205;SDS011;36098;48.390;10.856;2023-08-08T07:03:31;4.55;;;0.57;;
50205;SDS011;36098;48.390;10.856;2023-08-08T07:05:56;0.90;;;0.50;;
50205;SDS011;36098;48.390;10.856;2023-08-08T07:08:22;2.83;;;0.77;;
50205;SDS011;36098;48.390;10.856;2023-08-08T07:10:47;1.33;;;0.55;;
50205;SDS011;36098;48.390;10.856;2023-08-08T07:13:12;3.42;;;0.60;;
50205;SDS011;36098;48.390;10.856;2023-08-08T07:15:40;3.13;;;0.60;;
50205;SDS011;36098;48.390;10.856;2023-08-08T07:18:05;1.50;;;0.80;;
50205;SDS011;36098;48.390;10.856;2023-08-08T07:20:30;3.58;;;0.70;;
50205;SDS011;36098;48.390;10.856;2023-08-08T07:22:56;3.72;;;0.70;;
50205;SDS011;36098;48.390;10.856;2023-08-08T07:25:21;2.90;;;0.85;;
50205;SDS011;36098;48.390;10.856;2023-08-08T07:27:47;5.97;;;0.98;;
50205;SDS011;36098;48.390;10.856;2023-08-08T07:30:12;2.60;;;0.60;;
50205;SDS011;36098;48.390;10.856;2023-08-08T07:32:38;1.48;;;0.88;;
50205;SDS011;36098;48.390;10.856;2023-08-08T07:35:04;1.70;;;0.65;;
50205;SDS011;36098;48.390;10.856;2023-08-08T07:37:31;2.63;;;0.90;;
50205;SDS011;36098;48.390;10.856;2023-08-08T07:39:57;1.13;;;0.70;;
50205;SDS011;36098;48.390;10.856;2023-08-08T07:42:22;1.73;;;0.73;;
50205;SDS011;36098;48.390;10.856;2023-08-08T07:44:48;2.83;;;0.98;;
50205;SDS011;36098;48.390;10.856;2023-08-08T07:47:13;4.05;;;0.65;;
50205;SDS011;36098;48.390;10.856;2023-08-08T07:49:38;3.08;;;1.02;;
50205;SDS011;36098;48.390;10.856;2023-08-08T07:52:04;1.48;;;0.90;;
50205;SDS011;36098;48.390;10.856;2023-08-08T07:54:30;1.83;;;1.00;;
50205;SDS011;36098;48.390;10.856;2023-08-08T07:56:55;2.72;;;0.90;;
50205;SDS011;36098;48.390;10.856;2023-08-08T07:59:21;1.25;;;0.82;;
50205;SDS011;36098;48.390;10.856;2023-08-08T08:01:46;1.90;;;0.88;;
50205;SDS011;36098;48.390;10.856;2023-08-08T08:04:11;3.47;;;0.98;;
50205;SDS011;36098;48.390;10.856;2023-08-08T08:06:37;1.13;;;0.90;;
50205;SDS011;36098;48.390;10.856;2023-08-08T08:09:02;1.60;;;0.80;;
50205;SDS011;36098;48.390;10.856;2023-08-08T08:11:28;1.88;;;0.73;;
50205;SDS011;36098;48.390;10.856;2023-08-08T08:13:54;2.65;;;0.70;;
50205;SDS011;36098;48.390;10.856;2023-08-08T08:16:19;2.67;;;0.93;;
50205;SDS011;36098;48.390;10.856;2023-08-08T08:18:45;6.05;;;1.00;;
50205;SDS011;36098;48.390;10.856;2023-08-08T08:21:12;3.78;;;0.98;;
50205;SDS011;36098;48.390;10.856;2023-08-08T08:23:38;4.63;;;0.90;;
50205;SDS011;36098;48.390;10.856;2023-08-08T08:26:04;3.55;;;0.80;;
50205;SDS011;36098;48.390;10.856;2023-08-08T08:28:30;1.38;;;0.80;;
50205;SDS011;36098;48.390;10.856;2023-08-08T08:30:55;3.42;;;0.90;;
50205;SDS011;36098;48.390;10.856;2023-08-08T08:33:20;1.25;;;0.75;;
50205;SDS011;36098;48.390;10.856;2023-08-08T08:35:45;2.90;;;1.00;;
50205;SDS011;36098;48.390;10.856;2023-08-08T08:38:11;1.95;;;0.80;;
50205;SDS011;36098;48.390;10.856;2023-08-08T08:40:37;1.60;;;0.90;;
50205;SDS011;36098;48.390;10.856;2023-08-08T08:43:04;3.05;;;0.90;;
50205;SDS011;36098;48.390;10.856;2023-08-08T08:45:32;2.28;;;0.90;;
50205;SDS011;36098;48.390;10.856;2023-08-08T08:48:02;3.05;;;1.23;;
50205;SDS011;36098;48.390;10.856;2023-08-08T08:50:28;2.58;;;0.85;;
50205;SDS011;36098;48.390;10.856;2023-08-08T08:52:57;5.22;;;1.05;;
50205;SDS011;36098;48.390;10.856;2023-08-08T08:55:24;4.43;;;1.10;;
50205;SDS011;36098;48.390;10.856;2023-08-08T08:57:49;4.72;;;1.10;;
50205;SDS011;36098;48.390;10.856;2023-08-08T09:00:15;4.10;;;1.05;;
50205;SDS011;36098;48.390;10.856;2023-08-08T09:02:41;2.35;;;0.90;;
50205;SDS011;36098;48.390;10.856;2023-08-08T09:05:06;6.85;;;1.40;;
50205;SDS011;36098;48.390;10.856;2023-08-08T09:07:32;7.43;;;1.02;;
50205;SDS011;36098;48.390;10.856;2023-08-08T09:09:58;3.95;;;1.30;;
50205;SDS011;36098;48.390;10.856;2023-08-08T09:12:24;2.75;;;1.00;;
50205;SDS011;36098;48.390;10.856;2023-08-08T09:14:54;5.10;;;1.00;;
50205;SDS011;36098;48.390;10.856;2023-08-08T09:17:21;2.85;;;1.00;;
50205;SDS011;36098;48.390;10.856;2023-08-08T09:19:46;3.38;;;1.20;;
50205;SDS011;36098;48.390;10.856;2023-08-08T09:22:14;1.88;;;1.08;;
50205;SDS011;36098;48.390;10.856;2023-08-08T09:24:40;1.90;;;1.00;;
50205;SDS011;36098;48.390;10.856;2023-08-08T09:27:09;3.53;;;1.10;;
50205;SDS011;36098;48.390;10.856;2023-08-08T09:29:35;2.92;;;0.98;;
50205;SDS011;36098;48.390;10.856;2023-08-08T09:32:04;4.28;;;0.90;;
50205;SDS011;36098;48.390;10.856;2023-08-08T09:34:31;2.03;;;1.00;;
50205;SDS011;36098;48.390;10.856;2023-08-08T09:36:56;6.18;;;1.20;;
50205;SDS011;36098;48.390;10.856;2023-08-08T09:39:22;2.03;;;0.98;;
50205;SDS011;36098;48.390;10.856;2023-08-08T09:41:47;4.55;;;1.15;;
50205;SDS011;36098;48.390;10.856;2023-08-08T09:44:13;1.77;;;0.73;;
50205;SDS011;36098;48.390;10.856;2023-08-08T09:46:38;4.40;;;1.23;;
50205;SDS011;36098;48.390;10.856;2023-08-08T09:49:04;1.75;;;1.00;;
50205;SDS011;36098;48.390;10.856;2023-08-08T09:51:30;4.15;;;1.10;;
50205;SDS011;36098;48.390;10.856;2023-08-08T09:53:56;3.55;;;1.00;;
50205;SDS011;36098;48.390;10.856;2023-08-08T09:56:23;2.83;;;1.00;;
50205;SDS011;36098;48.390;10.856;2023-08-08T09:58:48;1.58;;;0.82;;
50205;SDS011;36098;48.390;10.856;2023-08-08T10:01:14;1.90;;;1.20;;
50205;SDS011;36098;48.390;10.856;2023-08-08T10:03:40;2.45;;;0.98;;
50205;SDS011;36098;48.390;10.856;2023-08-08T10:06:08;2.38;;;1.00;;
50205;SDS011;36098;48.390;10.856;2023-08-08T10:08:34;2.15;;;1.23;;
50205;SDS011;36098;48.390;10.856;2023-08-08T10:10:59;2.20;;;1.05;;
50205;SDS011;36098;48.390;10.856;2023-08-08T10:13:26;1.95;;;0.88;;
50205;SDS011;36098;48.390;10.856;2023-08-08T10:15:52;2.25;;;1.10;;
50205;SDS011;36098;48.390;10.856;2023-08-08T10:18:22;2.15;;;1.10;;
50205;SDS011;36098;48.390;10.856;2023-08-08T10:20:50;1.65;;;0.82;;
50205;SDS011;36098;48.390;10.856;2023-08-08T10:23:19;2.45;;;1.10;;
50205;SDS011;36098;48.390;10.856;2023-08-08T10:25:46;2.10;;;0.98;;
50205;SDS011;36098;48.390;10.856;2023-08-08T10:28:12;3.17;;;1.00;;
50205;SDS011;36098;48.390;10.856;2023-08-08T10:30:46;2.40;;;1.23;;
50205;SDS011;36098;48.390;10.856;2023-08-08T10:38:21;1.42;;;0.85;;
50205;SDS011;36098;48.390;10.856;2023-08-08T10:40:47;3.22;;;1.17;;
50205;SDS011;36098;48.390;10.856;2023-08-08T10:43:24;2.50;;;0.90;;
50205;SDS011;36098;48.390;10.856;2023-08-08T10:45:50;3.50;;;1.00;;
50205;SDS011;36098;48.390;10.856;2023-08-08T10:48:16;2.88;;;1.00;;
50205;SDS011;36098;48.390;10.856;2023-08-08T10:50:43;3.67;;;1.23;;
50205;SDS011;36098;48.390;10.856;2023-08-08T10:53:08;1.48;;;0.85;;
50205;SDS011;36098;48.390;10.856;2023-08-08T10:55:37;2.20;;;1.30;;
50205;SDS011;36098;48.390;10.856;2023-08-08T11:00:28;2.28;;;1.00;;
50205;SDS011;36098;48.390;10.856;2023-08-08T11:02:57;2.47;;;1.00;;
50205;SDS011;36098;48.390;10.856;2023-08-08T11:05:23;2.20;;;1.00;;
50205;SDS011;36098;48.390;10.856;2023-08-08T11:07:49;1.90;;;0.93;;
50205;SDS011;36098;48.390;10.856;2023-08-08T11:10:15;2.97;;;1.23;;
50205;SDS011;36098;48.390;10.856;2023-08-08T11:12:41;3.05;;;1.10;;
50205;SDS011;36098;48.390;10.856;2023-08-08T11:15:07;2.03;;;0.98;;
50205;SDS011;36098;48.390;10.856;2023-08-08T11:17:33;1.83;;;1.25;;
50205;SDS011;36098;48.390;10.856;2023-08-08T11:19:59;3.35;;;0.93;;
50205;SDS011;36098;48.390;10.856;2023-08-08T11:22:26;4.88;;;1.05;;
50205;SDS011;36098;48.390;10.856;2023-08-08T11:24:51;1.60;;;1.02;;
50205;SDS011;36098;48.390;10.856;2023-08-08T11:27:17;3.45;;;1.20;;
50205;SDS011;36098;48.390;10.856;2023-08-08T11:29:49;2.25;;;1.02;;
50205;SDS011;36098;48.390;10.856;2023-08-08T11:32:15;2.78;;;0.95;;
50205;SDS011;36098;48.390;10.856;2023-08-08T11:34:41;3.03;;;1.42;;
50205;SDS011;36098;48.390;10.856;2023-08-08T11:37:07;2.83;;;1.30;;
50205;SDS011;36098;48.390;10.856;2023-08-08T11:39:33;2.05;;;0.95;;
50205;SDS011;36098;48.390;10.856;2023-08-08T11:41:59;5.35;;;1.10;;
50205;SDS011;36098;48.390;10.856;2023-08-08T11:44:25;2.25;;;1.20;;
50205;SDS011;36098;48.390;10.856;2023-08-08T11:46:50;4.18;;;1.20;;
50205;SDS011;36098;48.390;10.856;2023-08-08T11:49:16;3.83;;;1.30;;
50205;SDS011;36098;48.390;10.856;2023-08-08T11:51:42;5.93;;;1.48;;
50205;SDS011;36098;48.390;10.856;2023-08-08T11:54:08;6.80;;;1.52;;
50205;SDS011;36098;48.390;10.856;2023-08-08T11:56:34;8.45;;;1.48;;
50205;SDS011;36098;48.390;10.856;2023-08-08T11:59:01;7.05;;;1.30;;
50205;SDS011;36098;48.390;10.856;2023-08-08T12:01:27;2.65;;;1.17;;
50205;SDS011;36098;48.390;10.856;2023-08-08T12:03:54;2.55;;;1.45;;
50205;SDS011;36098;48.390;10.856;2023-08-08T12:06:19;3.38;;;1.20;;
50205;SDS011;36098;48.390;10.856;2023-08-08T12:08:45;6.40;;;1.88;;
50205;SDS011;36098;48.390;10.856;2023-08-08T12:11:12;5.70;;;3.88;;
50205;SDS011;36098;48.390;10.856;2023-08-08T12:13:39;5.03;;;2.72;;
50205;SDS011;36098;48.390;10.856;2023-08-08T12:16:08;10.65;;;6.63;;
50205;SDS011;36098;48.390;10.856;2023-08-08T12:18:35;7.90;;;4.57;;
50205;SDS011;36098;48.390;10.856;2023-08-08T12:21:02;8.13;;;4.10;;
50205;SDS011;36098;48.390;10.856;2023-08-08T12:23:28;5.35;;;2.60;;
50205;SDS011;36098;48.390;10.856;2023-08-08T12:25:54;3.58;;;1.85;;
50205;SDS011;36098;48.390;10.856;2023-08-08T12:28:19;3.78;;;1.80;;
50205;SDS011;36098;48.390;10.856;2023-08-08T12:30:44;4.18;;;1.63;;
50205;SDS011;36098;48.390;10.856;2023-08-08T12:33:10;3.55;;;1.77;;
50205;SDS011;36098;48.390;10.856;2023-08-08T12:35:35;5.85;;;1.52;;
50205;SDS011;36098;48.390;10.856;2023-08-08T12:38:00;3.50;;;1.45;;
50205;SDS011;36098;48.390;10.856;2023-08-08T12:40:27;4.80;;;1.42;;
50205;SDS011;36098;48.390;10.856;2023-08-08T12:42:53;3.83;;;1.38;;
50205;SDS011;36098;48.390;10.856;2023-08-08T12:45:18;3.08;;;1.20;;
50205;SDS011;36098;48.390;10.856;2023-08-08T12:47:43;2.85;;;1.17;;
50205;SDS011;36098;48.390;10.856;2023-08-08T12:50:09;1.77;;;1.15;;
50205;SDS011;36098;48.390;10.856;2023-08-08T12:52:34;4.95;;;1.50;;
50205;SDS011;36098;48.390;10.856;2023-08-08T12:55:01;2.47;;;1.38;;
50205;SDS011;36098;48.390;10.856;2023-08-08T12:57:27;4.05;;;1.10;;
50205;SDS011;36098;48.390;10.856;2023-08-08T12:59:53;5.25;;;1.30;;
50205;SDS011;36098;48.390;10.856;2023-08-08T13:02:19;6.38;;;1.25;;
50205;SDS011;36098;48.390;10.856;2023-08-08T13:04:45;1.50;;;1.00;;
50205;SDS011;36098;48.390;10.856;2023-08-08T13:07:10;3.05;;;1.10;;
50205;SDS011;36098;48.390;10.856;2023-08-08T13:09:35;2.78;;;1.17;;
50205;SDS011;36098;48.390;10.856;2023-08-08T13:12:01;4.82;;;1.30;;
50205;SDS011;36098;48.390;10.856;2023-08-08T13:14:26;2.03;;;1.00;;
50205;SDS011;36098;48.390;10.856;2023-08-08T13:16:52;2.30;;;1.10;;
50205;SDS011;36098;48.390;10.856;2023-08-08T13:19:17;2.13;;;1.10;;
50205;SDS011;36098;48.390;10.856;2023-08-08T13:21:46;3.22;;;1.08;;
50205;SDS011;36098;48.390;10.856;2023-08-08T13:24:11;4.80;;;1.40;;
50205;SDS011;36098;48.390;10.856;2023-08-08T13:26:38;1.88;;;1.10;;
50205;SDS011;36098;48.390;10.856;2023-08-08T13:29:04;2.58;;;1.30;;
50205;SDS011;36098;48.390;10.856;2023-08-08T13:31:29;2.63;;;1.30;;
50205;SDS011;36098;48.390;10.856;2023-08-08T13:33:54;4.65;;;1.45;;
50205;SDS011;36098;48.390;10.856;2023-08-08T13:36:19;2.65;;;1.35;;
50205;SDS011;36098;48.390;10.856;2023-08-08T13:38:45;2.13;;;1.10;;
50205;SDS011;36098;48.390;10.856;2023-08-08T13:41:10;4.13;;;1.10;;
50205;SDS011;36098;48.390;10.856;2023-08-08T13:43:35;1.70;;;1.17;;
50205;SDS011;36098;48.390;10.856;2023-08-08T13:46:01;3.60;;;1.20;;
50205;SDS011;36098;48.390;10.856;2023-08-08T13:48:28;1.70;;;1.20;;
50205;SDS011;36098;48.390;10.856;2023-08-08T13:50:53;5.20;;;1.25;;
50205;SDS011;36098;48.390;10.856;2023-08-08T13:53:19;2.35;;;1.10;;
50205;SDS011;36098;48.390;10.856;2023-08-08T13:55:44;2.25;;;1.35;;
50205;SDS011;36098;48.390;10.856;2023-08-08T13:58:09;5.63;;;1.13;;
50205;SDS011;36098;48.390;10.856;2023-08-08T14:00:35;3.85;;;1.40;;
50205;SDS011;36098;48.390;10.856;2023-08-08T14:03:00;2.70;;;1.00;;
50205;SDS011;36098;48.390;10.856;2023-08-08T14:05:27;6.25;;;1.60;;
50205;SDS011;36098;48.390;10.856;2023-08-08T14:07:53;7.50;;;1.52;;
50205;SDS011;36098;48.390;10.856;2023-08-08T14:10:18;7.82;;;1.60;;
50205;SDS011;36098;48.390;10.856;2023-08-08T14:12:43;2.90;;;1.13;;
50205;SDS011;36098;48.390;10.856;2023-08-08T14:15:09;3.72;;;1.20;;
50205;SDS011;36098;48.390;10.856;2023-08-08T14:17:34;3.17;;;1.20;;
50205;SDS011;36098;48.390;10.856;2023-08-08T14:20:00;2.08;;;1.00;;
50205;SDS011;36098;48.390;10.856;2023-08-08T14:22:25;3.08;;;1.20;;
50205;SDS011;36098;48.390;10.856;2023-08-08T14:24:50;3.13;;;1.15;;
50205;SDS011;36098;48.390;10.856;2023-08-08T14:27:16;3.22;;;1.40;;
50205;SDS011;36098;48.390;10.856;2023-08-08T14:29:41;4.68;;;1.38;;
50205;SDS011;36098;48.390;10.856;2023-08-08T14:32:06;4.18;;;1.13;;